Ekaterinburg, Russia
Current Conditions -  °F | °C
As of 6:30 AM on Thursday 27 Nov 2014 (Local Time) from USSS Reporting Station
Clear Clear  
Wind Chill: -4°   Ceiling: Unl
Heat Index:   Visibility: 6mi
Dew Point:   Wind: 9mph
Humidity: 73%   Direction: 310°NW
Pressure: 30.27"   Gusts: NA
Location:  56.83°N, 60.63°E
Report Text: USSS 270130Z 31004MPS CAVOK M13/M17 Q1025 76810350 NOSIG RMKQFE748
Loading
Personal Weather Stations






























Interactive Weather Map New forecast layout! Learn more

10-Day Weather Forecast

Advertisements
Track Severe Weather on mobile